Time;durP1;ratioP1;P1;durP2;ratioP2;P2;SDS_P1;SDS_P2;PMS_P1;PMS_P2;Temp;Humidity;BMP_temperature;BMP_pressure;BME280_temperature;BME280_humidity;BME280_pressure;Samples;Min_cycle;Max_cycle;Signal;HPM_P1;HPM_P2
2022/09/08 00:02:24;;;;;;;5.00;3.83;;;20.40;99.90;;;;;;5066794;28;20475;-85
2022/09/08 00:04:50;;;;;;;11.30;4.70;;;20.40;99.90;;;;;;5068658;28;20337;-84
2022/09/08 00:07:16;;;;;;;5.63;4.63;;;20.30;99.90;;;;;;5062437;28;20029;-83
2022/09/08 00:09:41;;;;;;;9.10;4.85;;;20.30;99.90;;;;;;5072673;28;20028;-83
2022/09/08 00:12:08;;;;;;;9.63;5.10;;;20.30;99.90;;;;;;5068026;28;20449;-83
2022/09/08 00:14:34;;;;;;;6.55;4.43;;;20.20;99.90;;;;;;5076718;28;20042;-83
2022/09/08 00:17:01;;;;;;;12.65;4.43;;;20.20;99.90;;;;;;5077750;28;20017;-82
2022/09/08 00:19:26;;;;;;;5.22;4.32;;;20.10;99.90;;;;;;5081219;28;20461;-81
2022/09/08 00:21:52;;;;;;;10.63;5.07;;;20.20;99.90;;;;;;5081192;28;20021;-81
2022/09/08 00:24:18;;;;;;;8.05;4.55;;;20.10;99.90;;;;;;5071296;28;20477;-82
2022/09/08 00:26:44;;;;;;;7.03;4.72;;;20.10;99.90;;;;;;5066020;28;20021;-83
2022/09/08 00:29:09;;;;;;;8.48;4.65;;;20.00;99.90;;;;;;5075118;28;20115;-82
2022/09/08 00:31:39;;;;;;;10.65;4.80;;;20.00;99.90;;;;;;5067824;28;20412;-82
2022/09/08 00:34:05;;;;;;;8.00;4.10;;;20.00;99.90;;;;;;5072642;28;20017;-82
2022/09/08 00:36:31;;;;;;;8.80;4.60;;;20.00;99.90;;;;;;5071548;28;20350;-84
2022/09/08 00:38:58;;;;;;;7.10;5.15;;;19.90;99.90;;;;;;5071914;28;20043;-83
2022/09/08 00:41:24;;;;;;;8.50;4.97;;;19.90;99.90;;;;;;5071030;28;20029;-83
2022/09/08 00:43:59;;;;;;;10.30;4.65;;;19.90;99.90;;;;;;5074438;28;20020;-82
2022/09/08 00:46:28;;;;;;;7.55;6.03;;;19.80;99.90;;;;;;5067467;28;20139;-83
2022/09/08 00:49:06;;;;;;;7.47;5.80;;;19.80;99.90;;;;;;5077132;28;20028;-83
2022/09/08 00:51:32;;;;;;;8.65;5.18;;;19.80;99.90;;;;;;5077873;28;20150;-82
2022/09/08 00:53:59;;;;;;;6.35;4.82;;;19.80;99.90;;;;;;5071993;28;20085;-82
2022/09/08 00:56:27;;;;;;;6.07;4.93;;;19.80;99.90;;;;;;5069787;28;20053;-81
2022/09/08 00:58:54;;;;;;;7.97;5.47;;;19.80;99.90;;;;;;5071777;28;20020;-83
2022/09/08 01:01:20;;;;;;;7.85;5.57;;;19.80;99.90;;;;;;5071289;28;20024;-82
2022/09/08 01:03:45;;;;;;;7.63;5.47;;;19.70;99.90;;;;;;5070432;28;20048;-82
2022/09/08 01:15:06;;;;;;;6.68;5.57;;;19.70;99.90;;;;;;5076809;28;20494;-82
2022/09/08 01:17:31;;;;;;;7.30;5.70;;;19.70;99.90;;;;;;5069884;28;20147;-84
2022/09/08 01:19:59;;;;;;;7.75;6.38;;;19.60;99.90;;;;;;5069163;28;20103;-83
2022/09/08 01:22:52;;;;;;;9.27;5.78;;;19.60;99.90;;;;;;5087247;28;20033;-82
2022/09/08 01:25:32;;;;;;;8.93;6.30;;;19.60;99.90;;;;;;5073125;28;20024;-82
2022/09/08 01:28:12;;;;;;;6.68;5.75;;;19.60;99.90;;;;;;5060401;28;20066;-83
2022/09/08 01:30:39;;;;;;;9.68;6.15;;;19.60;99.90;;;;;;5072681;28;20193;-82
2022/09/08 01:33:08;;;;;;;8.82;6.18;;;19.60;99.90;;;;;;5069772;28;20893;-82
2022/09/08 01:35:39;;;;;;;8.75;6.10;;;19.60;99.90;;;;;;5067795;28;20119;-83
2022/09/08 01:38:09;;;;;;;9.13;5.63;;;19.50;99.90;;;;;;5075431;28;20516;-82
2022/09/08 01:40:36;;;;;;;9.15;6.53;;;19.60;99.90;;;;;;5070828;28;20020;-84
2022/09/08 01:43:01;;;;;;;7.20;5.82;;;19.60;99.90;;;;;;5070356;28;20032;-83
2022/09/08 01:45:27;;;;;;;7.10;5.80;;;19.60;99.90;;;;;;5068245;28;20391;-83
2022/09/08 01:47:54;;;;;;;7.00;5.72;;;19.60;99.90;;;;;;5067001;28;20464;-83
2022/09/08 01:50:20;;;;;;;10.77;6.30;;;19.60;99.90;;;;;;5069317;28;20419;-84
2022/09/08 01:52:45;;;;;;;9.07;5.93;;;19.60;99.90;;;;;;5072479;28;20027;-83
2022/09/08 01:55:11;;;;;;;6.72;5.55;;;19.60;99.90;;;;;;5073363;28;20111;-83
2022/09/08 01:57:37;;;;;;;10.55;5.65;;;19.60;99.90;;;;;;5067159;28;20479;-84
2022/09/08 02:00:04;;;;;;;7.25;5.40;;;19.60;99.90;;;;;;5070832;28;20028;-83
2022/09/08 02:02:30;;;;;;;9.65;5.53;;;19.60;99.90;;;;;;5070531;28;20017;-83
2022/09/08 02:04:55;;;;;;;5.55;4.63;;;19.60;99.90;;;;;;5069425;28;20043;-82
2022/09/08 02:07:21;;;;;;;9.05;5.65;;;19.60;99.90;;;;;;5068963;28;20028;-83
2022/09/08 02:09:46;;;;;;;8.85;5.25;;;19.60;99.90;;;;;;5071630;28;20016;-83
2022/09/08 02:12:12;;;;;;;9.07;5.13;;;19.60;99.90;;;;;;5069702;28;20451;-86
2022/09/08 02:14:38;;;;;;;9.90;5.40;;;19.60;99.90;;;;;;5070503;28;20039;-83
2022/09/08 02:17:03;;;;;;;6.93;4.97;;;19.60;99.90;;;;;;5069356;28;20129;-83
2022/09/08 02:19:29;;;;;;;8.52;6.28;;;19.70;99.90;;;;;;5073577;28;20453;-83
2022/09/08 02:21:55;;;;;;;7.72;5.00;;;19.70;99.90;;;;;;5066345;28;20020;-82
2022/09/08 02:24:21;;;;;;;8.43;5.53;;;19.70;99.90;;;;;;5072897;28;20024;-82
2022/09/08 02:26:46;;;;;;;10.43;4.85;;;19.70;99.90;;;;;;5073056;28;20423;-84
2022/09/08 02:29:12;;;;;;;4.65;4.18;;;19.70;99.90;;;;;;5075235;28;20035;-85
2022/09/08 02:31:38;;;;;;;7.57;5.13;;;19.70;99.90;;;;;;5068447;28;20482;-84
2022/09/08 02:34:04;;;;;;;5.45;4.43;;;19.60;99.90;;;;;;5067532;28;20032;-84
2022/09/08 02:36:30;;;;;;;7.03;5.40;;;19.60;99.90;;;;;;5069629;28;20361;-83
2022/09/08 02:38:55;;;;;;;7.97;5.10;;;19.60;99.90;;;;;;5078799;28;20016;-83
2022/09/08 02:41:22;;;;;;;5.00;4.40;;;19.60;99.90;;;;;;5088113;28;20024;-83
2022/09/08 02:43:48;;;;;;;9.40;4.85;;;19.60;99.90;;;;;;5076215;28;20032;-84
2022/09/08 02:46:14;;;;;;;5.93;4.40;;;19.60;99.90;;;;;;5067253;28;20457;-82
2022/09/08 02:48:40;;;;;;;7.93;4.78;;;19.70;99.90;;;;;;5069523;28;20024;-82
2022/09/08 02:51:08;;;;;;;7.45;5.30;;;19.70;99.90;;;;;;5067337;28;20024;-84
2022/09/08 02:53:34;;;;;;;5.53;4.28;;;19.70;99.90;;;;;;5067005;28;20025;-82
2022/09/08 02:56:01;;;;;;;12.77;4.88;;;19.70;99.90;;;;;;5075908;28;20032;-82
2022/09/08 02:58:27;;;;;;;12.02;5.43;;;19.70;99.90;;;;;;5075406;28;20031;-82
2022/09/08 03:00:53;;;;;;;7.10;5.07;;;19.70;99.90;;;;;;5074442;28;20024;-82
2022/09/08 03:03:19;;;;;;;6.75;4.60;;;19.70;99.90;;;;;;5071152;28;20028;-82
2022/09/08 03:05:45;;;;;;;7.85;4.63;;;19.70;99.90;;;;;;5064847;28;20028;-84
2022/09/08 03:08:11;;;;;;;7.40;4.65;;;19.70;99.90;;;;;;5068954;28;20032;-84
2022/09/08 03:10:37;;;;;;;4.30;3.90;;;19.70;99.90;;;;;;5083417;28;20025;-83
2022/09/08 03:13:03;;;;;;;6.07;4.55;;;19.70;99.90;;;;;;5071959;28;20461;-83
2022/09/08 03:15:30;;;;;;;6.28;4.32;;;19.70;99.90;;;;;;5070210;28;20040;-85
2022/09/08 03:17:57;;;;;;;4.55;3.65;;;19.80;99.90;;;;;;5064779;28;20527;-83
2022/09/08 03:20:23;;;;;;;8.55;5.25;;;19.80;99.90;;;;;;5074892;28;20020;-83
2022/09/08 03:22:49;;;;;;;5.82;4.10;;;19.80;99.90;;;;;;5067547;28;20027;-83
2022/09/08 03:25:16;;;;;;;5.78;5.18;;;19.80;99.90;;;;;;5074476;28;20036;-83
2022/09/08 03:27:41;;;;;;;9.07;4.72;;;19.80;99.90;;;;;;5068505;28;20078;-84
2022/09/08 03:30:10;;;;;;;6.50;4.40;;;19.80;99.90;;;;;;5070902;28;20064;-84
2022/09/08 03:32:37;;;;;;;10.68;5.60;;;19.80;99.90;;;;;;5072248;28;20104;-84
2022/09/08 03:35:04;;;;;;;7.47;5.15;;;19.80;99.90;;;;;;5064359;28;20029;-84
2022/09/08 03:37:30;;;;;;;10.07;5.75;;;19.80;99.90;;;;;;5064395;28;20025;-84
2022/09/08 03:39:55;;;;;;;10.05;5.75;;;19.80;99.90;;;;;;5066101;28;20044;-83
2022/09/08 03:42:21;;;;;;;5.75;5.05;;;19.80;99.90;;;;;;5052056;28;20021;-83
2022/09/08 03:44:47;;;;;;;9.20;5.43;;;19.80;99.90;;;;;;5067291;28;20433;-83
2022/09/08 03:47:12;;;;;;;8.00;5.35;;;19.80;99.90;;;;;;5068749;28;20845;-83
2022/09/08 03:49:38;;;;;;;6.57;5.57;;;19.80;99.90;;;;;;5073695;28;20023;-83
2022/09/08 03:52:03;;;;;;;7.03;5.35;;;19.80;99.90;;;;;;5066927;28;20032;-84
2022/09/08 03:54:47;;;;;;;10.85;5.55;;;19.70;99.90;;;;;;5065839;28;20033;-85
2022/09/08 03:57:15;;;;;;;7.00;5.30;;;19.70;99.90;;;;;;5070254;28;20107;-82
2022/09/08 03:59:42;;;;;;;10.20;5.32;;;19.70;99.90;;;;;;5069127;28;20453;-83
2022/09/08 04:02:07;;;;;;;9.07;5.80;;;19.80;99.90;;;;;;5068327;28;20334;-83
2022/09/08 04:04:33;;;;;;;8.45;5.53;;;19.70;99.90;;;;;;5064879;28;20032;-84
2022/09/08 04:06:58;;;;;;;9.25;4.90;;;19.70;99.90;;;;;;5069950;28;20039;-82
2022/09/08 04:09:24;;;;;;;9.30;5.47;;;19.80;99.90;;;;;;5071206;28;20099;-82
2022/09/08 04:11:49;;;;;;;8.25;5.93;;;19.80;99.90;;;;;;5072299;28;20472;-83
2022/09/08 04:14:15;;;;;;;7.55;5.05;;;19.80;99.90;;;;;;5069702;28;20053;-83
2022/09/08 04:16:41;;;;;;;8.70;5.72;;;19.80;99.90;;;;;;5074071;28;20108;-84
2022/09/08 04:19:07;;;;;;;7.45;5.53;;;19.80;99.90;;;;;;5073702;28;20020;-83
2022/09/08 04:21:33;;;;;;;8.45;6.22;;;19.80;99.90;;;;;;5069202;28;20043;-83
2022/09/08 04:23:59;;;;;;;7.93;6.22;;;19.80;99.90;;;;;;5074747;28;20448;-82
2022/09/08 04:26:26;;;;;;;8.05;5.07;;;19.80;99.90;;;;;;5071021;28;20020;-83
2022/09/08 04:28:51;;;;;;;6.75;5.38;;;19.80;99.90;;;;;;5070658;28;20453;-82
2022/09/08 04:31:18;;;;;;;11.90;5.60;;;19.80;99.90;;;;;;5070292;28;20024;-84
2022/09/08 04:33:43;;;;;;;8.38;5.25;;;19.80;99.90;;;;;;5071291;28;20087;-84
2022/09/08 04:36:15;;;;;;;9.43;6.57;;;19.80;99.90;;;;;;5070034;28;20063;-82
2022/09/08 04:38:41;;;;;;;9.35;6.35;;;19.80;99.90;;;;;;5066824;28;20063;-82
2022/09/08 04:41:12;;;;;;;8.32;6.55;;;19.80;99.90;;;;;;5067286;28;20037;-83
2022/09/08 04:43:37;;;;;;;7.15;5.00;;;19.80;99.90;;;;;;5066053;28;20365;-81
2022/09/08 04:46:08;;;;;;;5.82;3.40;;;19.70;99.90;;;;;;5067407;28;20037;-82
2022/09/08 04:48:35;;;;;;;4.50;3.10;;;19.70;99.90;;;;;;5065936;28;20028;-82
2022/09/08 04:51:02;;;;;;;3.88;3.28;;;19.70;99.90;;;;;;5062965;28;20036;-81
2022/09/08 04:53:30;;;;;;;6.05;3.33;;;19.60;99.90;;;;;;5067307;28;20457;-84
2022/09/08 04:55:56;;;;;;;7.82;3.22;;;19.60;99.90;;;;;;5070604;28;20036;-84
2022/09/08 04:58:21;;;;;;;12.25;3.35;;;19.70;99.90;;;;;;5071093;28;20035;-83
2022/09/08 05:00:48;;;;;;;4.90;3.65;;;19.70;99.90;;;;;;5071655;28;20021;-81
2022/09/08 05:03:14;;;;;;;6.32;3.13;;;19.70;99.90;;;;;;5074197;28;20024;-82
2022/09/08 05:05:40;;;;;;;5.82;2.65;;;19.70;99.90;;;;;;5071445;28;20036;-83
2022/09/08 05:08:06;;;;;;;7.47;3.45;;;19.70;99.90;;;;;;5072204;28;20021;-81
2022/09/08 05:10:32;;;;;;;10.48;3.78;;;19.70;99.90;;;;;;5075438;28;20028;-81
2022/09/08 05:12:58;;;;;;;12.15;3.70;;;19.70;99.90;;;;;;5074739;28;20086;-82
2022/09/08 05:15:24;;;;;;;9.18;3.20;;;19.60;99.90;;;;;;5072557;28;20373;-81
2022/09/08 05:17:50;;;;;;;8.52;3.85;;;19.60;99.90;;;;;;5071277;28;20021;-81
2022/09/08 05:20:16;;;;;;;10.52;4.07;;;19.50;99.90;;;;;;5073781;28;20116;-82
2022/09/08 05:22:41;;;;;;;11.00;3.95;;;19.50;99.90;;;;;;5074432;28;20056;-81
2022/09/08 05:25:08;;;;;;;9.32;4.18;;;19.40;99.90;;;;;;5073807;28;20081;-81
2022/09/08 05:27:33;;;;;;;9.80;4.40;;;19.40;99.90;;;;;;5077144;28;20050;-81
2022/09/08 05:29:59;;;;;;;5.35;3.70;;;19.30;99.90;;;;;;5074217;28;20028;-81
2022/09/08 05:32:24;;;;;;;11.50;4.45;;;19.30;99.90;;;;;;5073079;28;20027;-80
2022/09/08 05:34:50;;;;;;;6.43;4.22;;;19.20;99.90;;;;;;5074055;28;20029;-82
2022/09/08 05:37:16;;;;;;;9.60;4.70;;;19.20;99.90;;;;;;5072393;28;20035;-81
2022/09/08 05:39:42;;;;;;;12.32;4.35;;;19.30;99.90;;;;;;5072104;28;20020;-84
2022/09/08 05:42:07;;;;;;;11.68;4.90;;;19.30;99.90;;;;;;5072283;28;20085;-84
2022/09/08 05:44:33;;;;;;;9.75;4.90;;;19.30;99.90;;;;;;5073224;28;20162;-83
2022/09/08 05:46:58;;;;;;;7.15;4.63;;;19.30;99.90;;;;;;5071897;28;20032;-81
2022/09/08 05:49:24;;;;;;;6.93;4.53;;;19.30;99.90;;;;;;5072542;28;20025;-80
2022/09/08 05:51:52;;;;;;;11.82;4.80;;;19.30;99.90;;;;;;5069935;28;20017;-81
2022/09/08 05:54:19;;;;;;;8.63;5.20;;;19.30;99.90;;;;;;5090975;28;20033;-81
2022/09/08 05:56:44;;;;;;;9.75;4.88;;;19.30;99.90;;;;;;5073670;28;20489;-82
2022/09/08 05:59:11;;;;;;;6.68;5.07;;;19.30;99.90;;;;;;5077730;28;20027;-82
2022/09/08 06:01:37;;;;;;;9.70;5.07;;;19.30;99.90;;;;;;5076657;28;20392;-81
2022/09/08 06:04:03;;;;;;;9.57;4.80;;;19.40;99.90;;;;;;5076611;28;20413;-81
2022/09/08 06:06:29;;;;;;;6.47;5.05;;;19.40;99.90;;;;;;5077112;28;20066;-84
2022/09/08 06:08:56;;;;;;;8.02;4.75;;;19.40;99.90;;;;;;5075694;28;20051;-82
2022/09/08 06:11:22;;;;;;;8.40;4.30;;;19.50;99.90;;;;;;5084282;28;20099;-81
2022/09/08 06:13:48;;;;;;;8.50;5.32;;;19.50;99.90;;;;;;5094183;28;20012;-82
2022/09/08 06:16:14;;;;;;;9.85;5.13;;;19.60;99.90;;;;;;5089715;28;20031;-81
2022/09/08 06:18:43;;;;;;;11.82;4.93;;;19.70;99.90;;;;;;5074091;28;20048;-81
2022/09/08 06:21:14;;;;;;;7.82;4.97;;;19.70;99.90;;;;;;5072123;28;20096;-82
2022/09/08 06:23:40;;;;;;;8.82;5.75;;;19.80;99.90;;;;;;5071724;28;20024;-81
2022/09/08 06:26:47;;;;;;;7.63;5.05;;;19.90;99.90;;;;;;5071810;28;20034;-82
2022/09/08 06:29:29;;;;;;;8.05;5.10;;;19.90;99.90;;;;;;5069652;28;20036;-82
2022/09/08 06:32:02;;;;;;;6.78;4.35;;;20.00;99.90;;;;;;5069910;28;20490;-81
2022/09/08 06:34:41;;;;;;;7.35;4.72;;;20.00;99.90;;;;;;5071699;28;20124;-83
2022/09/08 06:37:18;;;;;;;6.05;4.40;;;20.10;99.90;;;;;;5069933;28;20036;-82
2022/09/08 06:39:48;;;;;;;9.52;5.93;;;20.10;99.90;;;;;;5070415;28;20047;-81
2022/09/08 06:42:20;;;;;;;7.50;4.93;;;20.20;99.90;;;;;;5071533;28;20033;-82
2022/09/08 06:44:50;;;;;;;6.15;4.68;;;20.20;99.90;;;;;;5071265;28;20424;-83
2022/09/08 06:47:20;;;;;;;8.18;5.03;;;20.20;99.90;;;;;;5070859;28;20138;-82
2022/09/08 06:49:45;;;;;;;12.77;6.30;;;20.20;99.90;;;;;;5070621;28;20036;-82
2022/09/08 06:52:10;;;;;;;8.00;4.70;;;20.30;99.90;;;;;;5071006;28;20033;-81
2022/09/08 06:54:57;;;;;;;6.38;4.97;;;20.30;99.90;;;;;;5071347;28;20040;-81
2022/09/08 06:57:42;;;;;;;8.68;5.28;;;20.30;99.90;;;;;;5070941;28;20082;-81
2022/09/08 07:00:18;;;;;;;5.93;5.10;;;20.30;99.90;;;;;;5069796;28;20103;-81
2022/09/08 07:03:16;;;;;;;9.52;5.55;;;20.30;99.90;;;;;;5070959;28;20107;-82
2022/09/08 07:05:57;;;;;;;7.72;4.97;;;20.30;99.90;;;;;;5069958;28;20044;-85
2022/09/08 07:08:42;;;;;;;9.40;5.28;;;20.30;99.90;;;;;;5069272;28;20456;-82
2022/09/08 07:11:36;;;;;;;6.85;4.88;;;20.40;99.90;;;;;;5069189;28;20027;-83
2022/09/08 07:14:19;;;;;;;7.55;4.90;;;20.40;99.90;;;;;;5056218;28;20036;-82
2022/09/08 07:16:49;;;;;;;7.40;5.40;;;20.40;99.90;;;;;;5068918;28;20029;-82
2022/09/08 07:19:20;;;;;;;10.45;5.50;;;20.40;99.90;;;;;;5070837;28;20020;-82
2022/09/08 07:21:59;;;;;;;14.93;5.72;;;20.50;99.90;;;;;;5070340;28;20539;-82
2022/09/08 07:24:33;;;;;;;9.88;5.28;;;20.50;99.90;;;;;;5068809;28;20154;-81
2022/09/08 07:27:03;;;;;;;8.93;5.40;;;20.50;99.90;;;;;;5071833;28;20466;-81
2022/09/08 07:29:50;;;;;;;9.98;5.40;;;20.50;99.90;;;;;;5070213;28;20044;-81
2022/09/08 07:32:44;;;;;;;8.55;6.00;;;20.40;99.90;;;;;;5071404;28;20100;-81
2022/09/08 07:35:24;;;;;;;7.40;5.10;;;20.40;99.90;;;;;;5069796;28;20048;-80
2022/09/08 07:37:53;;;;;;;8.15;5.20;;;20.40;99.90;;;;;;5087961;28;20480;-82
2022/09/08 07:40:43;;;;;;;8.38;6.40;;;20.40;99.90;;;;;;5071527;28;20098;-82
2022/09/08 07:43:11;;;;;;;7.40;6.00;;;20.40;99.90;;;;;;5075472;28;20020;-80
2022/09/08 07:45:48;;;;;;;8.63;5.32;;;20.40;99.90;;;;;;5073483;28;20036;-79
2022/09/08 07:48:32;;;;;;;13.48;5.47;;;20.40;99.90;;;;;;5075216;28;20025;-81
2022/09/08 07:51:19;;;;;;;8.30;5.75;;;20.30;99.90;;;;;;5075769;28;20024;-80
2022/09/08 07:53:54;;;;;;;15.98;6.20;;;20.30;99.90;;;;;;5054319;28;20458;-80
2022/09/08 07:56:43;;;;;;;7.97;5.78;;;20.30;99.90;;;;;;5053791;28;20078;-81
2022/09/08 07:59:19;;;;;;;16.95;6.43;;;20.20;99.90;;;;;;5053963;28;20052;-80
2022/09/08 08:02:12;;;;;;;7.72;5.43;;;20.20;99.90;;;;;;5052536;28;20108;-82
2022/09/08 08:05:02;;;;;;;10.27;5.22;;;20.20;99.90;;;;;;5054124;28;20063;-80
2022/09/08 08:07:42;;;;;;;10.25;5.32;;;20.20;99.90;;;;;;5064667;28;20142;-81
2022/09/08 08:10:20;;;;;;;8.20;4.88;;;20.20;99.90;;;;;;5074153;28;20342;-80
2022/09/08 08:13:12;;;;;;;9.95;6.65;;;20.20;99.90;;;;;;5073237;28;20113;-82
2022/09/08 08:15:58;;;;;;;9.10;5.30;;;20.20;99.90;;;;;;5056742;28;20040;-80
2022/09/08 08:18:50;;;;;;;10.48;5.25;;;20.20;99.90;;;;;;5074550;28;20063;-81
2022/09/08 08:21:23;;;;;;;9.07;5.18;;;20.10;99.90;;;;;;5073337;28;20064;-80
2022/09/08 08:24:10;;;;;;;10.07;5.35;;;20.10;99.90;;;;;;5073793;28;20025;-82
2022/09/08 08:26:51;;;;;;;6.07;5.00;;;20.10;99.90;;;;;;5073442;28;20027;-80
2022/09/08 08:29:49;;;;;;;8.85;6.05;;;20.00;99.90;;;;;;5073788;28;20240;-80
2022/09/08 08:32:24;;;;;;;7.65;5.45;;;20.00;99.90;;;;;;5071811;28;20121;-80
2022/09/08 08:35:01;;;;;;;9.60;5.20;;;20.00;99.90;;;;;;5072142;28;20032;-80
2022/09/08 08:37:31;;;;;;;10.68;4.97;;;20.00;99.90;;;;;;5072788;28;20826;-80
2022/09/08 08:39:58;;;;;;;10.57;5.70;;;20.00;99.90;;;;;;5073268;28;20488;-81
2022/09/08 08:42:38;;;;;;;11.65;6.43;;;20.00;99.90;;;;;;5071617;28;20056;-80
2022/09/08 08:45:37;;;;;;;12.18;6.15;;;20.00;99.90;;;;;;5071769;28;20077;-79
2022/09/08 08:48:30;;;;;;;10.60;6.22;;;20.00;99.90;;;;;;5072984;28;20028;-80
2022/09/08 08:51:03;;;;;;;10.15;6.00;;;19.90;99.90;;;;;;5072613;28;20453;-80
2022/09/08 08:54:02;;;;;;;10.38;6.30;;;19.90;99.90;;;;;;5072783;28;20021;-80
2022/09/08 08:56:44;;;;;;;14.02;6.43;;;19.90;99.90;;;;;;5072596;28;20041;-79
2022/09/08 08:59:51;;;;;;;13.02;6.22;;;19.90;99.90;;;;;;5073076;28;20342;-79
2022/09/08 09:02:45;;;;;;;8.80;5.82;;;19.90;99.90;;;;;;5072675;28;20103;-80
2022/09/08 09:05:30;;;;;;;10.32;6.05;;;19.80;99.90;;;;;;5073310;28;20017;-80
2022/09/08 09:08:21;;;;;;;7.32;5.53;;;19.80;99.90;;;;;;5072763;28;20112;-80
2022/09/08 09:10:52;;;;;;;12.05;7.05;;;19.80;99.90;;;;;;5072665;28;20488;-80
2022/09/08 09:13:29;;;;;;;11.25;6.80;;;19.90;99.90;;;;;;5072974;28;20020;-79
2022/09/08 09:16:09;;;;;;;8.77;5.85;;;19.90;99.90;;;;;;5072166;28;20028;-80
2022/09/08 09:19:20;;;;;;;15.15;7.18;;;19.90;99.90;;;;;;5072826;28;20066;-80
2022/09/08 09:22:04;;;;;;;9.18;5.10;;;19.90;99.90;;;;;;5072510;28;20031;-80
2022/09/08 09:24:37;;;;;;;8.10;4.72;;;19.90;99.90;;;;;;5072292;28;20036;-80
2022/09/08 09:27:27;;;;;;;8.75;4.53;;;19.90;99.90;;;;;;5071897;28;20040;-79
2022/09/08 09:30:15;;;;;;;7.82;4.53;;;20.00;99.90;;;;;;5072653;28;20044;-80
2022/09/08 09:33:09;;;;;;;7.75;4.97;;;20.00;99.90;;;;;;5071181;28;20021;-80
2022/09/08 09:35:54;;;;;;;5.40;4.05;;;20.00;99.90;;;;;;5071857;28;20028;-81
2022/09/08 09:38:45;;;;;;;7.85;5.18;;;20.10;99.90;;;;;;5072655;28;20457;-80
2022/09/08 09:41:34;;;;;;;9.98;5.00;;;20.10;99.90;;;;;;5073887;28;20032;-80
2022/09/08 09:44:05;;;;;;;9.18;5.07;;;20.20;99.90;;;;;;5073253;28;20024;-81
2022/09/08 09:46:59;;;;;;;9.15;4.35;;;20.20;99.90;;;;;;5094646;28;20028;-79
2022/09/08 09:49:38;;;;;;;7.28;4.90;;;20.20;99.90;;;;;;5089618;28;20013;-79
2022/09/08 09:52:44;;;;;;;7.93;4.75;;;20.30;99.90;;;;;;5071453;28;20433;-79
2022/09/08 09:55:46;;;;;;;6.88;4.70;;;20.40;99.90;;;;;;5070917;28;20465;-80
2022/09/08 09:58:46;;;;;;;6.88;4.95;;;20.40;99.90;;;;;;5071878;28;20020;-79
2022/09/08 10:01:21;;;;;;;6.43;4.57;;;20.50;99.90;;;;;;5070009;28;20024;-81
2022/09/08 10:04:34;;;;;;;7.65;4.35;;;20.70;99.90;;;;;;5071218;28;20496;-80
2022/09/08 10:07:13;;;;;;;6.55;3.35;;;20.80;99.90;;;;;;5069581;28;20383;-80
2022/09/08 10:10:02;;;;;;;5.78;4.03;;;20.90;99.90;;;;;;5071377;28;20025;-80
2022/09/08 10:12:31;;;;;;;5.57;3.47;;;21.00;99.90;;;;;;5071354;28;20032;-80
2022/09/08 10:15:34;;;;;;;5.30;3.28;;;21.10;99.90;;;;;;5070925;28;20047;-82
2022/09/08 10:18:46;;;;;;;10.57;3.30;;;21.20;99.90;;;;;;5070868;28;20077;-80
2022/09/08 10:21:30;;;;;;;5.13;2.72;;;21.40;99.90;;;;;;5050985;28;20052;-80
2022/09/08 10:24:12;;;;;;;4.20;2.33;;;21.40;99.90;;;;;;5051550;28;20020;-82
2022/09/08 10:27:02;;;;;;;4.93;2.90;;;21.50;99.90;;;;;;5051161;28;20025;-81
2022/09/08 10:30:09;;;;;;;4.38;2.90;;;21.60;99.90;;;;;;5051640;28;20871;-83
2022/09/08 10:32:42;;;;;;;3.00;2.03;;;21.60;99.90;;;;;;5047720;28;20131;-80
2022/09/08 10:35:30;;;;;;;4.28;2.67;;;21.70;99.90;;;;;;5070408;28;20032;-81
2022/09/08 10:38:19;;;;;;;5.82;2.45;;;21.80;99.90;;;;;;5070190;28;20021;-81
2022/09/08 10:40:56;;;;;;;4.03;2.33;;;21.90;99.90;;;;;;5071220;28;20346;-80
2022/09/08 10:43:30;;;;;;;3.45;2.45;;;21.90;99.90;;;;;;5072431;28;20020;-84
2022/09/08 10:46:02;;;;;;;5.82;2.40;;;22.00;99.90;;;;;;5071323;28;20702;-80
2022/09/08 10:48:49;;;;;;;4.77;2.40;;;22.10;99.90;;;;;;5070279;28;20024;-80
2022/09/08 10:51:26;;;;;;;4.25;2.42;;;22.10;99.90;;;;;;5071486;28;20081;-80
2022/09/08 10:54:21;;;;;;;3.13;2.55;;;22.20;99.90;;;;;;5070962;28;20019;-81
2022/09/08 10:56:48;;;;;;;3.40;1.95;;;22.30;99.90;;;;;;5070132;28;20181;-79
2022/09/08 10:59:42;;;;;;;4.13;2.58;;;22.30;99.90;;;;;;5071152;28;20072;-80
2022/09/08 11:02:32;;;;;;;4.15;2.28;;;22.30;99.90;;;;;;5068736;28;20094;-80
2022/09/08 11:05:25;;;;;;;4.13;2.30;;;22.40;99.90;;;;;;5069225;28;20028;-81
2022/09/08 11:08:39;;;;;;;2.97;2.00;;;22.50;99.90;;;;;;5070031;28;20369;-83
2022/09/08 11:11:40;;;;;;;4.05;1.95;;;22.50;99.90;;;;;;5050401;28;20021;-81
2022/09/08 11:14:39;;;;;;;3.45;1.48;;;22.50;99.90;;;;;;5050520;28;20108;-80
2022/09/08 11:17:32;;;;;;;6.93;1.77;;;22.60;99.90;;;;;;5058347;28;20527;-81
2022/09/08 11:20:28;;;;;;;2.75;1.83;;;22.50;99.90;;;;;;5070867;28;20027;-81
2022/09/08 11:23:11;;;;;;;3.78;2.00;;;22.50;99.90;;;;;;5070123;28;20016;-81
2022/09/08 11:26:03;;;;;;;3.42;1.90;;;22.40;99.90;;;;;;5070253;28;20048;-81
2022/09/08 11:28:45;;;;;;;3.05;2.05;;;22.30;99.90;;;;;;5070795;28;20499;-79
2022/09/08 11:31:27;;;;;;;3.03;1.75;;;22.30;99.90;;;;;;5069749;28;20035;-82
2022/09/08 11:34:11;;;;;;;5.13;1.60;;;22.30;99.90;;;;;;5070483;28;20493;-83
2022/09/08 11:37:18;;;;;;;3.15;1.40;;;22.30;99.90;;;;;;5068621;28;20373;-81
2022/09/08 11:40:13;;;;;;;2.92;1.73;;;22.30;99.90;;;;;;5070337;28;20054;-81
2022/09/08 11:43:14;;;;;;;3.35;1.73;;;22.30;99.90;;;;;;5068787;28;20491;-81
2022/09/08 11:46:01;;;;;;;2.72;1.13;;;22.30;99.90;;;;;;5068625;28;20029;-82
2022/09/08 11:48:39;;;;;;;3.28;1.50;;;22.30;99.90;;;;;;5062960;28;20027;-83
2022/09/08 11:51:22;;;;;;;3.85;1.60;;;22.20;99.90;;;;;;5060505;28;20028;-85
2022/09/08 11:54:03;;;;;;;2.88;1.23;;;22.20;99.90;;;;;;5067906;28;20020;-82
2022/09/08 11:56:37;;;;;;;2.47;1.80;;;22.20;99.90;;;;;;5069706;28;20033;-81
2022/09/08 11:59:30;;;;;;;5.72;2.03;;;22.10;99.90;;;;;;5074488;28;20098;-82
2022/09/08 12:02:22;;;;;;;3.70;1.52;;;22.10;99.90;;;;;;5062257;28;20098;-86
2022/09/08 12:05:22;;;;;;;2.55;1.35;;;22.10;99.90;;;;;;5071403;28;20013;-81
2022/09/08 12:08:11;;;;;;;3.30;1.50;;;22.00;99.90;;;;;;5065779;28;20490;-82
2022/09/08 12:10:42;;;;;;;3.00;1.42;;;21.90;99.90;;;;;;5068884;28;20040;-81
2022/09/08 12:13:14;;;;;;;7.03;1.30;;;21.80;99.90;;;;;;5068886;28;20024;-82
2022/09/08 12:16:03;;;;;;;1.70;1.52;;;21.80;99.90;;;;;;5069720;28;20057;-82
2022/09/08 12:18:58;;;;;;;5.18;1.35;;;21.80;99.90;;;;;;5048446;28;20037;-82
2022/09/08 12:21:58;;;;;;;3.17;1.85;;;21.80;99.90;;;;;;5058952;28;20021;-84
2022/09/08 12:24:58;;;;;;;3.35;1.45;;;21.90;99.90;;;;;;5074996;28;20510;-82
2022/09/08 12:28:01;;;;;;;1.52;1.23;;;21.90;99.90;;;;;;5044213;28;20036;-83
2022/09/08 12:30:40;;;;;;;4.05;1.60;;;21.70;99.90;;;;;;5073131;28;20979;-84
2022/09/08 12:33:40;;;;;;;3.65;1.10;;;21.70;99.90;;;;;;5069571;28;20028;-84
2022/09/08 12:36:15;;;;;;;1.38;1.00;;;21.70;99.90;;;;;;5066400;28;20221;-84
2022/09/08 12:39:00;;;;;;;3.17;0.90;;;21.70;99.90;;;;;;5083274;28;20133;-85
2022/09/08 12:41:44;;;;;;;3.92;1.30;;;21.60;99.90;;;;;;5082709;28;20475;-82
2022/09/08 12:44:49;;;;;;;1.50;1.15;;;21.50;99.90;;;;;;5068029;28;20035;-82
2022/09/08 12:47:27;;;;;;;1.25;1.10;;;21.40;99.90;;;;;;5070362;28;20036;-83
2022/09/08 12:50:31;;;;;;;0.95;0.82;;;21.40;99.90;;;;;;5066417;28;20528;-82
2022/09/08 12:53:18;;;;;;;2.35;0.93;;;21.30;99.90;;;;;;5075764;28;20036;-84
2022/09/08 12:56:04;;;;;;;2.47;1.30;;;21.40;99.90;;;;;;5070060;28;20029;-81
2022/09/08 12:59:04;;;;;;;3.15;1.10;;;21.30;99.90;;;;;;5069400;28;20110;-81
2022/09/08 13:01:37;;;;;;;4.05;1.40;;;21.20;99.90;;;;;;5018984;28;20020;-80
2022/09/08 13:04:24;;;;;;;5.43;1.25;;;21.20;99.90;;;;;;5075175;28;20029;-79
2022/09/08 13:07:31;;;;;;;2.45;1.00;;;21.20;99.90;;;;;;5071953;28;20047;-81
2022/09/08 13:10:15;;;;;;;2.33;1.20;;;21.30;99.90;;;;;;5054703;28;20574;-81
2022/09/08 13:13:01;;;;;;;1.25;1.10;;;21.30;99.90;;;;;;5071281;28;20179;-83
2022/09/08 13:15:30;;;;;;;1.98;1.35;;;21.40;99.90;;;;;;5070046;28;20101;-81
2022/09/08 13:18:08;;;;;;;2.00;1.10;;;21.50;99.90;;;;;;5073767;28;20033;-81
2022/09/08 13:20:39;;;;;;;2.20;1.40;;;21.60;99.90;;;;;;5094323;28;20017;-82
2022/09/08 13:23:28;;;;;;;5.60;1.08;;;21.60;99.90;;;;;;5095816;28;20020;-81
2022/09/08 13:26:07;;;;;;;4.65;1.20;;;21.60;99.90;;;;;;5075868;28;20077;-80
2022/09/08 13:28:42;;;;;;;2.00;1.33;;;21.60;99.90;;;;;;5072623;28;20032;-80
2022/09/08 13:31:20;;;;;;;2.63;1.10;;;21.50;99.90;;;;;;5071368;28;20094;-83
2022/09/08 13:34:14;;;;;;;1.80;1.08;;;21.60;99.90;;;;;;5070355;28;20017;-81
2022/09/08 13:37:17;;;;;;;2.47;1.20;;;21.60;99.90;;;;;;5082205;28;20031;-79
2022/09/08 13:39:59;;;;;;;4.82;1.60;;;21.50;99.90;;;;;;5073617;28;20020;-80
2022/09/08 13:42:43;;;;;;;5.53;1.27;;;21.30;99.90;;;;;;5071947;28;20090;-79